sensor_id;sensor_type;location;lat;lon;timestamp;P1;P2;P0
54553;PMS5003;40450;55.848;-3.572;2022-07-01T00:00:58;7;5;
54553;PMS5003;40450;55.848;-3.572;2022-07-01T00:03:28;5;5;
54553;PMS5003;40450;55.848;-3.572;2022-07-01T00:05:59;6;5;
54553;PMS5003;40450;55.848;-3.572;2022-07-01T00:08:29;6;6;
54553;PMS5003;40450;55.848;-3.572;2022-07-01T00:10:59;6;5;
54553;PMS5003;40450;55.848;-3.572;2022-07-01T00:13:30;5;5;
54553;PMS5003;40450;55.848;-3.572;2022-07-01T00:16:01;10;6;
54553;PMS5003;40450;55.848;-3.572;2022-07-01T00:18:31;4;4;
54553;PMS5003;40450;55.848;-3.572;2022-07-01T00:21:01;7;5;
54553;PMS5003;40450;55.848;-3.572;2022-07-01T00:23:32;9;7;
54553;PMS5003;40450;55.848;-3.572;2022-07-01T00:26:02;5;5;
54553;PMS5003;40450;55.848;-3.572;2022-07-01T00:28:33;3;3;
54553;PMS5003;40450;55.848;-3.572;2022-07-01T00:31:03;5;5;
54553;PMS5003;40450;55.848;-3.572;2022-07-01T00:33:34;7;5;
54553;PMS5003;40450;55.848;-3.572;2022-07-01T00:36:04;4;4;
54553;PMS5003;40450;55.848;-3.572;2022-07-01T00:38:34;6;5;
54553;PMS5003;40450;55.848;-3.572;2022-07-01T00:41:04;7;5;
54553;PMS5003;40450;55.848;-3.572;2022-07-01T00:43:35;5;5;
54553;PMS5003;40450;55.848;-3.572;2022-07-01T00:46:05;5;5;
54553;PMS5003;40450;55.848;-3.572;2022-07-01T00:48:36;3;3;
54553;PMS5003;40450;55.848;-3.572;2022-07-01T00:51:05;6;6;
54553;PMS5003;40450;55.848;-3.572;2022-07-01T00:53:36;5;4;
54553;PMS5003;40450;55.848;-3.572;2022-07-01T00:56:06;8;8;
54553;PMS5003;40450;55.848;-3.572;2022-07-01T00:58:36;6;5;
54553;PMS5003;40450;55.848;-3.572;2022-07-01T01:01:07;5;5;
54553;PMS5003;40450;55.848;-3.572;2022-07-01T01:03:37;6;6;
54553;PMS5003;40450;55.848;-3.572;2022-07-01T01:06:07;6;6;
54553;PMS5003;40450;55.848;-3.572;2022-07-01T01:08:38;5;5;
54553;PMS5003;40450;55.848;-3.572;2022-07-01T01:11:08;5;3;
54553;PMS5003;40450;55.848;-3.572;2022-07-01T01:13:38;3;3;
54553;PMS5003;40450;55.848;-3.572;2022-07-01T01:18:39;4;4;
54553;PMS5003;40450;55.848;-3.572;2022-07-01T01:21:09;4;4;
54553;PMS5003;40450;55.848;-3.572;2022-07-01T01:23:41;6;5;
54553;PMS5003;40450;55.848;-3.572;2022-07-01T01:26:14;5;5;
54553;PMS5003;40450;55.848;-3.572;2022-07-01T01:28:41;5;5;
54553;PMS5003;40450;55.848;-3.572;2022-07-01T01:31:11;4;3;
54553;PMS5003;40450;55.848;-3.572;2022-07-01T01:33:41;5;4;
54553;PMS5003;40450;55.848;-3.572;2022-07-01T01:36:12;5;5;
54553;PMS5003;40450;55.848;-3.572;2022-07-01T01:38:43;6;5;
54553;PMS5003;40450;55.848;-3.572;2022-07-01T01:41:12;5;5;
54553;PMS5003;40450;55.848;-3.572;2022-07-01T01:43:44;6;4;
54553;PMS5003;40450;55.848;-3.572;2022-07-01T01:46:14;4;4;
54553;PMS5003;40450;55.848;-3.572;2022-07-01T01:48:43;8;5;
54553;PMS5003;40450;55.848;-3.572;2022-07-01T01:51:14;4;4;
54553;PMS5003;40450;55.848;-3.572;2022-07-01T01:53:44;4;4;
54553;PMS5003;40450;55.848;-3.572;2022-07-01T01:56:15;4;4;
54553;PMS5003;40450;55.848;-3.572;2022-07-01T01:58:45;5;3;
54553;PMS5003;40450;55.848;-3.572;2022-07-01T02:01:16;5;5;
54553;PMS5003;40450;55.848;-3.572;2022-07-01T02:03:47;4;4;
54553;PMS5003;40450;55.848;-3.572;2022-07-01T02:06:17;4;3;
54553;PMS5003;40450;55.848;-3.572;2022-07-01T02:08:47;4;4;
54553;PMS5003;40450;55.848;-3.572;2022-07-01T02:11:17;5;5;
54553;PMS5003;40450;55.848;-3.572;2022-07-01T02:13:47;6;6;
54553;PMS5003;40450;55.848;-3.572;2022-07-01T02:16:18;7;4;
54553;PMS5003;40450;55.848;-3.572;2022-07-01T02:18:48;3;3;
54553;PMS5003;40450;55.848;-3.572;2022-07-01T02:21:19;6;5;
54553;PMS5003;40450;55.848;-3.572;2022-07-01T02:23:49;3;3;
54553;PMS5003;40450;55.848;-3.572;2022-07-01T02:26:19;6;6;
54553;PMS5003;40450;55.848;-3.572;2022-07-01T02:28:49;5;4;
54553;PMS5003;40450;55.848;-3.572;2022-07-01T02:31:19;3;3;
54553;PMS5003;40450;55.848;-3.572;2022-07-01T02:33:51;5;5;
54553;PMS5003;40450;55.848;-3.572;2022-07-01T02:36:20;4;3;
54553;PMS5003;40450;55.848;-3.572;2022-07-01T02:38:50;6;4;
54553;PMS5003;40450;55.848;-3.572;2022-07-01T02:41:21;6;4;
54553;PMS5003;40450;55.848;-3.572;2022-07-01T02:43:53;2;2;
54553;PMS5003;40450;55.848;-3.572;2022-07-01T02:46:22;5;5;
54553;PMS5003;40450;55.848;-3.572;2022-07-01T02:48:52;3;3;
54553;PMS5003;40450;55.848;-3.572;2022-07-01T02:51:22;5;3;
54553;PMS5003;40450;55.848;-3.572;2022-07-01T02:53:53;4;4;
54553;PMS5003;40450;55.848;-3.572;2022-07-01T02:56:23;3;3;
54553;PMS5003;40450;55.848;-3.572;2022-07-01T02:58:53;2;2;
54553;PMS5003;40450;55.848;-3.572;2022-07-01T03:01:24;3;3;
54553;PMS5003;40450;55.848;-3.572;2022-07-01T03:03:54;4;4;
54553;PMS5003;40450;55.848;-3.572;2022-07-01T03:06:25;4;3;
54553;PMS5003;40450;55.848;-3.572;2022-07-01T03:08:55;4;3;
54553;PMS5003;40450;55.848;-3.572;2022-07-01T03:11:26;3;3;
54553;PMS5003;40450;55.848;-3.572;2022-07-01T03:13:56;1;1;
54553;PMS5003;40450;55.848;-3.572;2022-07-01T03:16:27;5;3;
54553;PMS5003;40450;55.848;-3.572;2022-07-01T03:18:56;4;4;
54553;PMS5003;40450;55.848;-3.572;2022-07-01T03:21:27;5;3;
54553;PMS5003;40450;55.848;-3.572;2022-07-01T03:23:57;3;3;
54553;PMS5003;40450;55.848;-3.572;2022-07-01T03:26:28;5;3;
54553;PMS5003;40450;55.848;-3.572;2022-07-01T03:28:58;3;3;
54553;PMS5003;40450;55.848;-3.572;2022-07-01T03:31:29;2;2;
54553;PMS5003;40450;55.848;-3.572;2022-07-01T03:33:59;3;3;
54553;PMS5003;40450;55.848;-3.572;2022-07-01T03:36:29;6;5;
54553;PMS5003;40450;55.848;-3.572;2022-07-01T03:38:59;5;2;
54553;PMS5003;40450;55.848;-3.572;2022-07-01T03:41:33;5;5;
54553;PMS5003;40450;55.848;-3.572;2022-07-01T03:44:00;4;2;
54553;PMS5003;40450;55.848;-3.572;2022-07-01T03:46:33;4;4;
54553;PMS5003;40450;55.848;-3.572;2022-07-01T03:49:01;3;3;
54553;PMS5003;40450;55.848;-3.572;2022-07-01T03:51:31;5;3;
54553;PMS5003;40450;55.848;-3.572;2022-07-01T03:54:02;4;4;
54553;PMS5003;40450;55.848;-3.572;2022-07-01T03:56:32;4;2;
54553;PMS5003;40450;55.848;-3.572;2022-07-01T03:59:02;4;4;
54553;PMS5003;40450;55.848;-3.572;2022-07-01T04:01:34;5;5;
54553;PMS5003;40450;55.848;-3.572;2022-07-01T04:04:03;5;4;
54553;PMS5003;40450;55.848;-3.572;2022-07-01T04:06:34;6;5;
54553;PMS5003;40450;55.848;-3.572;2022-07-01T04:09:03;3;3;
54553;PMS5003;40450;55.848;-3.572;2022-07-01T04:11:35;3;3;
54553;PMS5003;40450;55.848;-3.572;2022-07-01T04:14:04;4;4;
54553;PMS5003;40450;55.848;-3.572;2022-07-01T04:16:35;5;4;
54553;PMS5003;40450;55.848;-3.572;2022-07-01T04:19:05;4;3;
54553;PMS5003;40450;55.848;-3.572;2022-07-01T04:21:35;3;3;
54553;PMS5003;40450;55.848;-3.572;2022-07-01T04:24:06;4;4;
54553;PMS5003;40450;55.848;-3.572;2022-07-01T04:26:36;2;2;
54553;PMS5003;40450;55.848;-3.572;2022-07-01T04:29:07;4;4;
54553;PMS5003;40450;55.848;-3.572;2022-07-01T04:31:37;3;3;
54553;PMS5003;40450;55.848;-3.572;2022-07-01T04:34:07;4;4;
54553;PMS5003;40450;55.848;-3.572;2022-07-01T04:36:38;3;3;
54553;PMS5003;40450;55.848;-3.572;2022-07-01T04:39:08;5;5;
54553;PMS5003;40450;55.848;-3.572;2022-07-01T04:41:38;2;2;
54553;PMS5003;40450;55.848;-3.572;2022-07-01T04:44:09;5;4;
54553;PMS5003;40450;55.848;-3.572;2022-07-01T04:46:39;7;5;
54553;PMS5003;40450;55.848;-3.572;2022-07-01T04:49:09;4;4;
54553;PMS5003;40450;55.848;-3.572;2022-07-01T04:51:40;7;4;
54553;PMS5003;40450;55.848;-3.572;2022-07-01T04:54:10;5;4;
54553;PMS5003;40450;55.848;-3.572;2022-07-01T04:56:41;3;3;
54553;PMS5003;40450;55.848;-3.572;2022-07-01T04:59:11;4;4;
54553;PMS5003;40450;55.848;-3.572;2022-07-01T05:01:41;3;3;
54553;PMS5003;40450;55.848;-3.572;2022-07-01T05:04:12;7;5;
54553;PMS5003;40450;55.848;-3.572;2022-07-01T05:06:42;3;3;
54553;PMS5003;40450;55.848;-3.572;2022-07-01T05:09:13;3;2;
54553;PMS5003;40450;55.848;-3.572;2022-07-01T05:11:43;6;6;
54553;PMS5003;40450;55.848;-3.572;2022-07-01T05:14:13;5;5;
54553;PMS5003;40450;55.848;-3.572;2022-07-01T05:16:44;5;5;
54553;PMS5003;40450;55.848;-3.572;2022-07-01T05:19:14;6;6;
54553;PMS5003;40450;55.848;-3.572;2022-07-01T05:21:44;4;4;
54553;PMS5003;40450;55.848;-3.572;2022-07-01T05:24:15;6;6;
54553;PMS5003;40450;55.848;-3.572;2022-07-01T05:26:45;5;5;
54553;PMS5003;40450;55.848;-3.572;2022-07-01T05:29:16;5;5;
54553;PMS5003;40450;55.848;-3.572;2022-07-01T05:31:46;5;5;
54553;PMS5003;40450;55.848;-3.572;2022-07-01T05:34:18;8;6;
54553;PMS5003;40450;55.848;-3.572;2022-07-01T05:36:47;6;6;
54553;PMS5003;40450;55.848;-3.572;2022-07-01T05:39:17;6;5;
54553;PMS5003;40450;55.848;-3.572;2022-07-01T05:41:48;7;5;
54553;PMS5003;40450;55.848;-3.572;2022-07-01T05:44:18;5;5;
54553;PMS5003;40450;55.848;-3.572;2022-07-01T05:46:48;7;6;
54553;PMS5003;40450;55.848;-3.572;2022-07-01T05:49:19;3;3;
54553;PMS5003;40450;55.848;-3.572;2022-07-01T05:51:49;5;5;
54553;PMS5003;40450;55.848;-3.572;2022-07-01T05:54:20;3;3;
54553;PMS5003;40450;55.848;-3.572;2022-07-01T05:56:50;4;4;
54553;PMS5003;40450;55.848;-3.572;2022-07-01T05:59:20;4;3;
54553;PMS5003;40450;55.848;-3.572;2022-07-01T06:01:51;7;6;
54553;PMS5003;40450;55.848;-3.572;2022-07-01T06:04:21;5;5;
54553;PMS5003;40450;55.848;-3.572;2022-07-01T06:06:52;5;5;
54553;PMS5003;40450;55.848;-3.572;2022-07-01T06:09:22;5;5;
54553;PMS5003;40450;55.848;-3.572;2022-07-01T06:11:53;4;4;
54553;PMS5003;40450;55.848;-3.572;2022-07-01T06:14:24;10;7;
54553;PMS5003;40450;55.848;-3.572;2022-07-01T06:16:53;7;6;
54553;PMS5003;40450;55.848;-3.572;2022-07-01T06:19:24;5;4;
54553;PMS5003;40450;55.848;-3.572;2022-07-01T06:21:54;6;5;
54553;PMS5003;40450;55.848;-3.572;2022-07-01T06:24:24;3;3;
54553;PMS5003;40450;55.848;-3.572;2022-07-01T06:26:54;6;6;
54553;PMS5003;40450;55.848;-3.572;2022-07-01T06:29:25;4;4;
54553;PMS5003;40450;55.848;-3.572;2022-07-01T06:31:55;3;3;
54553;PMS5003;40450;55.848;-3.572;2022-07-01T06:34:26;4;3;
54553;PMS5003;40450;55.848;-3.572;2022-07-01T06:36:56;5;4;
54553;PMS5003;40450;55.848;-3.572;2022-07-01T06:39:27;6;4;
54553;PMS5003;40450;55.848;-3.572;2022-07-01T06:41:57;3;3;
54553;PMS5003;40450;55.848;-3.572;2022-07-01T06:44:27;8;5;
54553;PMS5003;40450;55.848;-3.572;2022-07-01T06:46:57;6;6;
54553;PMS5003;40450;55.848;-3.572;2022-07-01T06:49:28;5;5;
54553;PMS5003;40450;55.848;-3.572;2022-07-01T06:51:58;5;5;
54553;PMS5003;40450;55.848;-3.572;2022-07-01T06:54:29;6;6;
54553;PMS5003;40450;55.848;-3.572;2022-07-01T06:56:59;4;4;
54553;PMS5003;40450;55.848;-3.572;2022-07-01T06:59:29;4;4;
54553;PMS5003;40450;55.848;-3.572;2022-07-01T07:02:00;5;5;
54553;PMS5003;40450;55.848;-3.572;2022-07-01T07:04:30;5;4;
54553;PMS5003;40450;55.848;-3.572;2022-07-01T07:07:00;3;3;
54553;PMS5003;40450;55.848;-3.572;2022-07-01T07:09:31;5;4;
54553;PMS5003;40450;55.848;-3.572;2022-07-01T07:12:02;3;3;
54553;PMS5003;40450;55.848;-3.572;2022-07-01T07:14:38;4;3;
54553;PMS5003;40450;55.848;-3.572;2022-07-01T07:17:02;1;1;
54553;PMS5003;40450;55.848;-3.572;2022-07-01T07:19:32;5;4;
54553;PMS5003;40450;55.848;-3.572;2022-07-01T07:22:02;4;4;
54553;PMS5003;40450;55.848;-3.572;2022-07-01T07:24:33;2;2;
54553;PMS5003;40450;55.848;-3.572;2022-07-01T07:27:03;4;4;
54553;PMS5003;40450;55.848;-3.572;2022-07-01T07:29:33;5;3;
54553;PMS5003;40450;55.848;-3.572;2022-07-01T07:32:05;3;3;
54553;PMS5003;40450;55.848;-3.572;2022-07-01T07:34:34;3;3;
54553;PMS5003;40450;55.848;-3.572;2022-07-01T07:37:05;3;3;
54553;PMS5003;40450;55.848;-3.572;2022-07-01T07:39:35;3;2;
54553;PMS5003;40450;55.848;-3.572;2022-07-01T07:42:05;2;2;
54553;PMS5003;40450;55.848;-3.572;2022-07-01T07:44:36;6;4;
54553;PMS5003;40450;55.848;-3.572;2022-07-01T07:47:06;3;3;
54553;PMS5003;40450;55.848;-3.572;2022-07-01T07:49:36;3;3;
54553;PMS5003;40450;55.848;-3.572;2022-07-01T07:52:07;4;2;
54553;PMS5003;40450;55.848;-3.572;2022-07-01T07:54:37;3;3;
54553;PMS5003;40450;55.848;-3.572;2022-07-01T07:57:08;2;2;
54553;PMS5003;40450;55.848;-3.572;2022-07-01T07:59:38;3;3;
54553;PMS5003;40450;55.848;-3.572;2022-07-01T08:02:08;3;3;
54553;PMS5003;40450;55.848;-3.572;2022-07-01T08:04:39;2;2;
54553;PMS5003;40450;55.848;-3.572;2022-07-01T08:07:09;3;3;
54553;PMS5003;40450;55.848;-3.572;2022-07-01T08:09:39;3;3;
54553;PMS5003;40450;55.848;-3.572;2022-07-01T08:12:10;3;3;
54553;PMS5003;40450;55.848;-3.572;2022-07-01T08:14:40;1;1;
54553;PMS5003;40450;55.848;-3.572;2022-07-01T08:17:11;2;2;
54553;PMS5003;40450;55.848;-3.572;2022-07-01T08:19:41;4;3;
54553;PMS5003;40450;55.848;-3.572;2022-07-01T08:22:13;3;3;
54553;PMS5003;40450;55.848;-3.572;2022-07-01T08:24:42;2;2;
54553;PMS5003;40450;55.848;-3.572;2022-07-01T08:27:12;3;2;
54553;PMS5003;40450;55.848;-3.572;2022-07-01T08:29:43;2;2;
54553;PMS5003;40450;55.848;-3.572;2022-07-01T08:32:13;3;3;
54553;PMS5003;40450;55.848;-3.572;2022-07-01T08:34:43;3;3;
54553;PMS5003;40450;55.848;-3.572;2022-07-01T08:37:13;1;1;
54553;PMS5003;40450;55.848;-3.572;2022-07-01T08:39:44;2;2;
54553;PMS5003;40450;55.848;-3.572;2022-07-01T08:42:14;2;1;
54553;PMS5003;40450;55.848;-3.572;2022-07-01T08:44:44;2;2;
54553;PMS5003;40450;55.848;-3.572;2022-07-01T08:47:15;5;3;
54553;PMS5003;40450;55.848;-3.572;2022-07-01T08:49:45;3;3;
54553;PMS5003;40450;55.848;-3.572;2022-07-01T08:52:15;2;2;
54553;PMS5003;40450;55.848;-3.572;2022-07-01T08:54:46;2;2;
54553;PMS5003;40450;55.848;-3.572;2022-07-01T08:57:19;4;4;
54553;PMS5003;40450;55.848;-3.572;2022-07-01T09:02:17;2;2;
54553;PMS5003;40450;55.848;-3.572;2022-07-01T09:04:50;4;3;
54553;PMS5003;40450;55.848;-3.572;2022-07-01T09:07:17;1;1;
54553;PMS5003;40450;55.848;-3.572;2022-07-01T09:09:48;1;1;
54553;PMS5003;40450;55.848;-3.572;2022-07-01T09:12:18;2;2;
54553;PMS5003;40450;55.848;-3.572;2022-07-01T09:14:49;2;2;
54553;PMS5003;40450;55.848;-3.572;2022-07-01T09:17:19;1;1;
54553;PMS5003;40450;55.848;-3.572;2022-07-01T09:19:49;4;1;
54553;PMS5003;40450;55.848;-3.572;2022-07-01T09:24:50;3;1;
54553;PMS5003;40450;55.848;-3.572;2022-07-01T09:27:20;1;1;
54553;PMS5003;40450;55.848;-3.572;2022-07-01T09:29:51;0;0;
54553;PMS5003;40450;55.848;-3.572;2022-07-01T09:32:21;1;1;
54553;PMS5003;40450;55.848;-3.572;2022-07-01T09:34:52;1;1;
54553;PMS5003;40450;55.848;-3.572;2022-07-01T09:37:22;2;1;
54553;PMS5003;40450;55.848;-3.572;2022-07-01T09:39:53;2;2;
54553;PMS5003;40450;55.848;-3.572;2022-07-01T09:42:23;1;1;
54553;PMS5003;40450;55.848;-3.572;2022-07-01T09:44:53;1;1;
54553;PMS5003;40450;55.848;-3.572;2022-07-01T09:47:23;0;0;
54553;PMS5003;40450;55.848;-3.572;2022-07-01T09:49:54;1;1;
54553;PMS5003;40450;55.848;-3.572;2022-07-01T09:52:24;1;1;
54553;PMS5003;40450;55.848;-3.572;2022-07-01T09:54:54;2;2;
54553;PMS5003;40450;55.848;-3.572;2022-07-01T09:57:25;0;0;
54553;PMS5003;40450;55.848;-3.572;2022-07-01T09:59:55;1;1;
54553;PMS5003;40450;55.848;-3.572;2022-07-01T10:02:25;0;0;
54553;PMS5003;40450;55.848;-3.572;2022-07-01T10:04:58;1;1;
54553;PMS5003;40450;55.848;-3.572;2022-07-01T10:07:29;2;2;
54553;PMS5003;40450;55.848;-3.572;2022-07-01T10:10:03;2;2;
54553;PMS5003;40450;55.848;-3.572;2022-07-01T10:12:30;1;1;
54553;PMS5003;40450;55.848;-3.572;2022-07-01T10:14:57;0;0;
54553;PMS5003;40450;55.848;-3.572;2022-07-01T10:17:28;3;2;
54553;PMS5003;40450;55.848;-3.572;2022-07-01T10:20:05;1;1;
54553;PMS5003;40450;55.848;-3.572;2022-07-01T10:22:28;3;2;
54553;PMS5003;40450;55.848;-3.572;2022-07-01T10:27:29;1;1;
54553;PMS5003;40450;55.848;-3.572;2022-07-01T10:32:29;0;0;
54553;PMS5003;40450;55.848;-3.572;2022-07-01T10:35:03;0;0;
54553;PMS5003;40450;55.848;-3.572;2022-07-01T10:37:30;2;2;
54553;PMS5003;40450;55.848;-3.572;2022-07-01T10:40:01;2;2;
54553;PMS5003;40450;55.848;-3.572;2022-07-01T10:42:32;2;0;
54553;PMS5003;40450;55.848;-3.572;2022-07-01T10:45:03;1;1;
54553;PMS5003;40450;55.848;-3.572;2022-07-01T10:47:32;2;2;
54553;PMS5003;40450;55.848;-3.572;2022-07-01T10:50:04;4;2;
54553;PMS5003;40450;55.848;-3.572;2022-07-01T10:52:32;0;0;
54553;PMS5003;40450;55.848;-3.572;2022-07-01T10:55:03;0;0;
54553;PMS5003;40450;55.848;-3.572;2022-07-01T10:57:35;2;2;
54553;PMS5003;40450;55.848;-3.572;2022-07-01T11:02:34;2;2;
54553;PMS5003;40450;55.848;-3.572;2022-07-01T11:05:06;3;3;
54553;PMS5003;40450;55.848;-3.572;2022-07-01T11:07:35;0;0;
54553;PMS5003;40450;55.848;-3.572;2022-07-01T11:10:06;2;2;
54553;PMS5003;40450;55.848;-3.572;2022-07-01T11:12:36;2;2;
54553;PMS5003;40450;55.848;-3.572;2022-07-01T11:15:06;0;0;
54553;PMS5003;40450;55.848;-3.572;2022-07-01T11:17:41;1;0;
54553;PMS5003;40450;55.848;-3.572;2022-07-01T11:20:07;1;1;
54553;PMS5003;40450;55.848;-3.572;2022-07-01T11:22:37;0;0;
54553;PMS5003;40450;55.848;-3.572;2022-07-01T11:25:08;2;2;
54553;PMS5003;40450;55.848;-3.572;2022-07-01T11:27:38;2;2;
54553;PMS5003;40450;55.848;-3.572;2022-07-01T11:30:09;2;2;
54553;PMS5003;40450;55.848;-3.572;2022-07-01T11:32:39;1;1;
54553;PMS5003;40450;55.848;-3.572;2022-07-01T11:35:15;1;1;
54553;PMS5003;40450;55.848;-3.572;2022-07-01T11:37:40;1;1;
54553;PMS5003;40450;55.848;-3.572;2022-07-01T11:40:10;1;1;
54553;PMS5003;40450;55.848;-3.572;2022-07-01T11:42:40;0;0;
54553;PMS5003;40450;55.848;-3.572;2022-07-01T11:47:40;1;1;
54553;PMS5003;40450;55.848;-3.572;2022-07-01T11:50:11;3;2;
54553;PMS5003;40450;55.848;-3.572;2022-07-01T11:52:41;1;1;
54553;PMS5003;40450;55.848;-3.572;2022-07-01T11:55:11;3;1;
54553;PMS5003;40450;55.848;-3.572;2022-07-01T11:57:42;4;2;
54553;PMS5003;40450;55.848;-3.572;2022-07-01T12:00:13;0;0;
54553;PMS5003;40450;55.848;-3.572;2022-07-01T12:02:42;1;1;
54553;PMS5003;40450;55.848;-3.572;2022-07-01T12:05:12;1;1;
54553;PMS5003;40450;55.848;-3.572;2022-07-01T12:07:44;2;2;
54553;PMS5003;40450;55.848;-3.572;2022-07-01T12:10:14;1;1;
54553;PMS5003;40450;55.848;-3.572;2022-07-01T12:12:44;1;1;
54553;PMS5003;40450;55.848;-3.572;2022-07-01T12:15:15;1;1;
54553;PMS5003;40450;55.848;-3.572;2022-07-01T12:17:44;0;0;
54553;PMS5003;40450;55.848;-3.572;2022-07-01T12:20:15;3;3;
54553;PMS5003;40450;55.848;-3.572;2022-07-01T12:22:45;1;1;
54553;PMS5003;40450;55.848;-3.572;2022-07-01T12:25:15;3;2;
54553;PMS5003;40450;55.848;-3.572;2022-07-01T12:27:46;2;2;
54553;PMS5003;40450;55.848;-3.572;2022-07-01T12:32:46;3;3;
54553;PMS5003;40450;55.848;-3.572;2022-07-01T12:35:22;1;1;
54553;PMS5003;40450;55.848;-3.572;2022-07-01T12:37:47;1;1;
54553;PMS5003;40450;55.848;-3.572;2022-07-01T12:40:20;2;0;
54553;PMS5003;40450;55.848;-3.572;2022-07-01T12:42:48;3;3;
54553;PMS5003;40450;55.848;-3.572;2022-07-01T12:45:21;3;3;
54553;PMS5003;40450;55.848;-3.572;2022-07-01T12:47:49;3;3;
54553;PMS5003;40450;55.848;-3.572;2022-07-01T12:50:19;3;1;
54553;PMS5003;40450;55.848;-3.572;2022-07-01T12:55:20;2;2;
54553;PMS5003;40450;55.848;-3.572;2022-07-01T12:57:50;2;2;
54553;PMS5003;40450;55.848;-3.572;2022-07-01T13:00:22;1;1;
54553;PMS5003;40450;55.848;-3.572;2022-07-01T13:02:51;1;1;
54553;PMS5003;40450;55.848;-3.572;2022-07-01T13:05:21;3;1;
54553;PMS5003;40450;55.848;-3.572;2022-07-01T13:07:51;1;1;
54553;PMS5003;40450;55.848;-3.572;2022-07-01T13:10:22;0;0;
54553;PMS5003;40450;55.848;-3.572;2022-07-01T13:12:52;1;1;
54553;PMS5003;40450;55.848;-3.572;2022-07-01T13:15:23;2;2;
54553;PMS5003;40450;55.848;-3.572;2022-07-01T13:17:53;1;1;
54553;PMS5003;40450;55.848;-3.572;2022-07-01T13:20:24;1;1;
54553;PMS5003;40450;55.848;-3.572;2022-07-01T13:22:53;1;1;
54553;PMS5003;40450;55.848;-3.572;2022-07-01T13:25:24;0;0;
54553;PMS5003;40450;55.848;-3.572;2022-07-01T13:27:54;2;2;
54553;PMS5003;40450;55.848;-3.572;2022-07-01T13:30:24;2;2;
54553;PMS5003;40450;55.848;-3.572;2022-07-01T13:32:55;2;2;
54553;PMS5003;40450;55.848;-3.572;2022-07-01T13:35:25;2;2;
54553;PMS5003;40450;55.848;-3.572;2022-07-01T13:37:55;2;2;
54553;PMS5003;40450;55.848;-3.572;2022-07-01T13:40:26;2;2;
54553;PMS5003;40450;55.848;-3.572;2022-07-01T13:42:56;4;3;
54553;PMS5003;40450;55.848;-3.572;2022-07-01T13:45:27;1;1;
54553;PMS5003;40450;55.848;-3.572;2022-07-01T13:47:57;1;0;
54553;PMS5003;40450;55.848;-3.572;2022-07-01T13:50:27;0;0;
54553;PMS5003;40450;55.848;-3.572;2022-07-01T13:52:57;0;0;
54553;PMS5003;40450;55.848;-3.572;2022-07-01T13:55:28;1;1;
54553;PMS5003;40450;55.848;-3.572;2022-07-01T13:57:58;0;0;
54553;PMS5003;40450;55.848;-3.572;2022-07-01T14:00:28;0;0;
54553;PMS5003;40450;55.848;-3.572;2022-07-01T14:02:59;1;1;
54553;PMS5003;40450;55.848;-3.572;2022-07-01T14:05:29;0;0;
54553;PMS5003;40450;55.848;-3.572;2022-07-01T14:07:59;0;0;
54553;PMS5003;40450;55.848;-3.572;2022-07-01T14:10:30;0;0;
54553;PMS5003;40450;55.848;-3.572;2022-07-01T14:13:00;1;1;
54553;PMS5003;40450;55.848;-3.572;2022-07-01T14:15:31;0;0;
54553;PMS5003;40450;55.848;-3.572;2022-07-01T14:18:06;0;0;
54553;PMS5003;40450;55.848;-3.572;2022-07-01T14:20:31;0;0;
54553;PMS5003;40450;55.848;-3.572;2022-07-01T14:23:01;0;0;
54553;PMS5003;40450;55.848;-3.572;2022-07-01T14:25:32;0;0;
54553;PMS5003;40450;55.848;-3.572;2022-07-01T14:28:02;0;0;
54553;PMS5003;40450;55.848;-3.572;2022-07-01T14:30:32;1;1;
54553;PMS5003;40450;55.848;-3.572;2022-07-01T14:33:03;0;0;
54553;PMS5003;40450;55.848;-3.572;2022-07-01T14:35:33;0;0;
54553;PMS5003;40450;55.848;-3.572;2022-07-01T14:38:03;0;0;
54553;PMS5003;40450;55.848;-3.572;2022-07-01T14:40:34;0;0;
54553;PMS5003;40450;55.848;-3.572;2022-07-01T14:43:04;0;0;
54553;PMS5003;40450;55.848;-3.572;2022-07-01T14:45:34;0;0;
54553;PMS5003;40450;55.848;-3.572;2022-07-01T14:48:05;3;0;
54553;PMS5003;40450;55.848;-3.572;2022-07-01T14:50:35;1;1;
54553;PMS5003;40450;55.848;-3.572;2022-07-01T14:53:05;0;0;
54553;PMS5003;40450;55.848;-3.572;2022-07-01T14:55:36;0;0;
54553;PMS5003;40450;55.848;-3.572;2022-07-01T14:58:06;0;0;
54553;PMS5003;40450;55.848;-3.572;2022-07-01T15:00:36;1;1;
54553;PMS5003;40450;55.848;-3.572;2022-07-01T15:03:07;0;0;
54553;PMS5003;40450;55.848;-3.572;2022-07-01T15:05:37;0;0;
54553;PMS5003;40450;55.848;-3.572;2022-07-01T15:08:07;0;0;
54553;PMS5003;40450;55.848;-3.572;2022-07-01T15:10:37;0;0;
54553;PMS5003;40450;55.848;-3.572;2022-07-01T15:13:08;0;0;
54553;PMS5003;40450;55.848;-3.572;2022-07-01T15:15:38;1;1;
54553;PMS5003;40450;55.848;-3.572;2022-07-01T15:18:09;0;0;
54553;PMS5003;40450;55.848;-3.572;2022-07-01T15:20:39;0;0;
54553;PMS5003;40450;55.848;-3.572;2022-07-01T15:23:09;0;0;
54553;PMS5003;40450;55.848;-3.572;2022-07-01T15:25:44;0;0;
54553;PMS5003;40450;55.848;-3.572;2022-07-01T15:28:10;0;0;
54553;PMS5003;40450;55.848;-3.572;2022-07-01T15:30:40;0;0;
54553;PMS5003;40450;55.848;-3.572;2022-07-01T15:33:10;1;1;
54553;PMS5003;40450;55.848;-3.572;2022-07-01T15:35:41;0;0;
54553;PMS5003;40450;55.848;-3.572;2022-07-01T15:38:11;0;0;
54553;PMS5003;40450;55.848;-3.572;2022-07-01T15:40:41;0;0;
54553;PMS5003;40450;55.848;-3.572;2022-07-01T15:43:12;0;0;
54553;PMS5003;40450;55.848;-3.572;2022-07-01T15:45:42;0;0;
54553;PMS5003;40450;55.848;-3.572;2022-07-01T15:48:12;0;0;
54553;PMS5003;40450;55.848;-3.572;2022-07-01T15:50:43;0;0;
54553;PMS5003;40450;55.848;-3.572;2022-07-01T15:53:13;0;0;
54553;PMS5003;40450;55.848;-3.572;2022-07-01T15:55:43;0;0;
54553;PMS5003;40450;55.848;-3.572;2022-07-01T15:58:14;0;0;
54553;PMS5003;40450;55.848;-3.572;2022-07-01T16:00:49;0;0;
54553;PMS5003;40450;55.848;-3.572;2022-07-01T16:03:14;0;0;
54553;PMS5003;40450;55.848;-3.572;2022-07-01T16:05:45;3;0;
54553;PMS5003;40450;55.848;-3.572;2022-07-01T16:08:17;0;0;
54553;PMS5003;40450;55.848;-3.572;2022-07-01T16:10:46;0;0;
54553;PMS5003;40450;55.848;-3.572;2022-07-01T16:13:16;0;0;
54553;PMS5003;40450;55.848;-3.572;2022-07-01T16:15:47;0;0;
54553;PMS5003;40450;55.848;-3.572;2022-07-01T16:18:16;0;0;
54553;PMS5003;40450;55.848;-3.572;2022-07-01T16:20:47;0;0;
54553;PMS5003;40450;55.848;-3.572;2022-07-01T16:23:19;0;0;
54553;PMS5003;40450;55.848;-3.572;2022-07-01T16:25:47;0;0;
54553;PMS5003;40450;55.848;-3.572;2022-07-01T16:28:18;2;0;
54553;PMS5003;40450;55.848;-3.572;2022-07-01T16:30:48;0;0;
54553;PMS5003;40450;55.848;-3.572;2022-07-01T16:33:18;0;0;
54553;PMS5003;40450;55.848;-3.572;2022-07-01T16:35:49;0;0;
54553;PMS5003;40450;55.848;-3.572;2022-07-01T16:38:20;3;1;
54553;PMS5003;40450;55.848;-3.572;2022-07-01T16:40:50;0;0;
54553;PMS5003;40450;55.848;-3.572;2022-07-01T16:43:20;0;0;
54553;PMS5003;40450;55.848;-3.572;2022-07-01T16:45:50;1;1;
54553;PMS5003;40450;55.848;-3.572;2022-07-01T16:48:21;1;1;
54553;PMS5003;40450;55.848;-3.572;2022-07-01T16:50:51;1;1;
54553;PMS5003;40450;55.848;-3.572;2022-07-01T16:53:21;0;0;
54553;PMS5003;40450;55.848;-3.572;2022-07-01T16:55:51;1;1;
54553;PMS5003;40450;55.848;-3.572;2022-07-01T16:58:22;2;1;
54553;PMS5003;40450;55.848;-3.572;2022-07-01T17:00:52;0;0;
54553;PMS5003;40450;55.848;-3.572;2022-07-01T17:03:22;4;1;
54553;PMS5003;40450;55.848;-3.572;2022-07-01T17:05:52;1;1;
54553;PMS5003;40450;55.848;-3.572;2022-07-01T17:08:23;1;1;
54553;PMS5003;40450;55.848;-3.572;2022-07-01T17:10:53;2;2;
54553;PMS5003;40450;55.848;-3.572;2022-07-01T17:13:23;0;0;
54553;PMS5003;40450;55.848;-3.572;2022-07-01T17:15:54;0;0;